Time;durP1;ratioP1;P1;durP2;ratioP2;P2;SDS_P1;SDS_P2;PMS_P1;PMS_P2;Temp;Humidity;BMP_temperature;BMP_pressure;BME280_temperature;BME280_humidity;BME280_pressure;Samples;Min_cycle;Max_cycle;Signal;HPM_P1;HPM_P2
2022/08/03 00:00:07;;;;;;;3.00;2.10;;;;;;;;;;5071299;28;20181;-79
2022/08/03 00:02:39;;;;;;;3.20;2.00;;;;;;;;;;5073489;28;20173;-80
2022/08/03 00:05:07;;;;;;;4.07;2.40;;;;;;;;;;5072412;28;20607;-79
2022/08/03 00:07:33;;;;;;;2.73;2.30;;;;;;;;;;5071522;28;20690;-79
2022/08/03 00:09:59;;;;;;;2.40;2.20;;;;;;;;;;5069389;28;20215;-78
2022/08/03 00:12:25;;;;;;;2.50;2.30;;;;;;;;;;5072462;28;20209;-77
2022/08/03 00:14:52;;;;;;;2.37;2.10;;;;;;;;;;5067977;28;20212;-77
2022/08/03 00:17:18;;;;;;;3.80;2.13;;;;;;;;;;5068470;28;20177;-78
2022/08/03 00:19:45;;;;;;;3.17;2.17;;;;;;;;;;5062856;28;20201;-78
2022/08/03 00:22:11;;;;;;;3.13;2.50;;;;;;;;;;5074199;28;20185;-78
2022/08/03 00:24:37;;;;;;;2.67;2.43;;;;;;;;;;5069814;28;20247;-78
2022/08/03 00:27:04;;;;;;;4.37;2.37;;;;;;;;;;5063908;28;20177;-78
2022/08/03 00:29:30;;;;;;;2.67;2.47;;;;;;;;;;5060537;28;20556;-78
2022/08/03 00:31:56;;;;;;;2.80;2.50;;;;;;;;;;5063053;28;20231;-77
2022/08/03 00:34:22;;;;;;;3.53;2.53;;;;;;;;;;5067560;28;20212;-78
2022/08/03 00:36:49;;;;;;;2.70;2.50;;;;;;;;;;5071370;28;20177;-78
2022/08/03 00:39:15;;;;;;;2.57;2.37;;;;;;;;;;5067171;28;20185;-78
2022/08/03 00:41:41;;;;;;;2.87;2.37;;;;;;;;;;5067360;28;20189;-78
2022/08/03 00:44:07;;;;;;;2.73;2.50;;;;;;;;;;5066296;28;20205;-78
2022/08/03 00:46:33;;;;;;;2.70;2.50;;;;;;;;;;5069304;28;20739;-78
2022/08/03 00:48:59;;;;;;;4.57;2.60;;;;;;;;;;5071054;28;20663;-77
2022/08/03 00:51:26;;;;;;;2.87;2.50;;;;;;;;;;5066048;28;20585;-78
2022/08/03 00:53:52;;;;;;;2.73;2.53;;;;;;;;;;5064733;28;20205;-78
2022/08/03 00:56:18;;;;;;;3.23;2.40;;;;;;;;;;5064950;28;20654;-78
2022/08/03 00:58:45;;;;;;;2.53;2.33;;;;;;;;;;5059406;28;20381;-78
2022/08/03 01:01:11;;;;;;;2.30;2.00;;;;;;;;;;5067028;28;20177;-78
2022/08/03 01:03:38;;;;;;;4.27;2.30;;;;;;;;;;5064935;28;20184;-78
2022/08/03 01:06:16;;;;;;;2.40;2.20;;;;;;;;;;5069935;28;20188;-78
2022/08/03 01:08:54;;;;;;;2.67;2.33;;;;;;;;;;5066254;28;20650;-78
2022/08/03 01:11:23;;;;;;;2.80;2.27;;;;;;;;;;5064336;28;20199;-78
2022/08/03 01:14:08;;;;;;;2.50;2.30;;;;;;;;;;5068647;28;20248;-77
2022/08/03 01:16:40;;;;;;;2.40;2.20;;;;;;;;;;5071178;28;20555;-78
2022/08/03 01:19:12;;;;;;;2.53;2.33;;;;;;;;;;5069599;28;20208;-78
2022/08/03 01:21:45;;;;;;;3.70;2.40;;;;;;;;;;5072720;28;20189;-78
2022/08/03 01:24:26;;;;;;;2.40;2.20;;;;;;;;;;5073160;28;20203;-78
2022/08/03 01:26:55;;;;;;;2.43;2.20;;;;;;;;;;5071081;28;20197;-78
2022/08/03 01:29:30;;;;;;;2.30;2.10;;;;;;;;;;5074484;28;20193;-78
2022/08/03 01:32:07;;;;;;;2.77;2.30;;;;;;;;;;5070129;28;20291;-77
2022/08/03 01:34:39;;;;;;;2.37;2.17;;;;;;;;;;5068111;28;20283;-78
2022/08/03 01:37:07;;;;;;;2.93;2.43;;;;;;;;;;5072686;28;20173;-78
2022/08/03 01:39:36;;;;;;;2.47;2.27;;;;;;;;;;5077580;28;20177;-78
2022/08/03 01:42:07;;;;;;;4.30;2.70;;;;;;;;;;5072510;28;20185;-78
2022/08/03 01:44:36;;;;;;;3.60;2.60;;;;;;;;;;5074077;28;20299;-78
2022/08/03 01:47:05;;;;;;;2.57;2.37;;;;;;;;;;5074462;28;20181;-78
2022/08/03 01:49:33;;;;;;;2.70;2.50;;;;;;;;;;5069561;28;20177;-78
2022/08/03 01:51:59;;;;;;;2.53;2.20;;;;;;;;;;5081813;28;20212;-78
2022/08/03 01:54:26;;;;;;;2.73;2.53;;;;;;;;;;5061973;28;20201;-78
2022/08/03 01:56:53;;;;;;;2.73;2.50;;;;;;;;;;5072662;28;20223;-78
2022/08/03 01:59:21;;;;;;;3.10;2.63;;;;;;;;;;5085658;28;20176;-78
2022/08/03 02:01:48;;;;;;;2.63;2.43;;;;;;;;;;5076215;28;20665;-78
2022/08/03 02:04:16;;;;;;;2.90;2.70;;;;;;;;;;5064262;28;20574;-78
2022/08/03 02:06:44;;;;;;;3.23;2.80;;;;;;;;;;5070451;28;20186;-77
2022/08/03 02:09:12;;;;;;;4.67;3.00;;;;;;;;;;5068367;28;20216;-78
2022/08/03 02:11:38;;;;;;;3.50;3.20;;;;;;;;;;5075579;28;20228;-78
2022/08/03 02:14:06;;;;;;;3.63;3.27;;;;;;;;;;5076695;28;20205;-78
2022/08/03 02:16:33;;;;;;;3.90;3.53;;;;;;;;;;5089897;28;20164;-78
2022/08/03 02:19:01;;;;;;;3.50;3.20;;;;;;;;;;5069942;28;20265;-78
2022/08/03 02:21:28;;;;;;;5.00;3.37;;;;;;;;;;5066391;28;20216;-78
2022/08/03 02:23:54;;;;;;;3.90;3.50;;;;;;;;;;5070221;28;20688;-77
2022/08/03 02:26:21;;;;;;;3.73;3.30;;;;;;;;;;5081159;28;20177;-77
2022/08/03 02:28:51;;;;;;;4.10;3.70;;;;;;;;;;5065060;28;20211;-78
2022/08/03 02:31:20;;;;;;;3.70;3.40;;;;;;;;;;5070676;28;20642;-77
2022/08/03 02:33:51;;;;;;;3.67;3.37;;;;;;;;;;5074013;28;20621;-77
2022/08/03 02:36:20;;;;;;;3.63;3.30;;;;;;;;;;5068375;28;20201;-78
2022/08/03 02:38:49;;;;;;;3.43;3.13;;;;;;;;;;5062665;28;20201;-78
2022/08/03 02:41:17;;;;;;;4.13;3.50;;;;;;;;;;5066773;28;20185;-78
2022/08/03 02:43:47;;;;;;;4.40;3.10;;;;;;;;;;5067045;28;20185;-78
2022/08/03 02:46:14;;;;;;;3.70;3.40;;;;;;;;;;5068463;28;20188;-78
2022/08/03 02:48:41;;;;;;;3.40;3.10;;;;;;;;;;5069222;28;20185;-78
2022/08/03 02:51:07;;;;;;;3.70;2.90;;;;;;;;;;5070333;28;20666;-78
2022/08/03 02:53:34;;;;;;;3.20;2.90;;;;;;;;;;5063535;28;20205;-78
2022/08/03 02:56:02;;;;;;;3.90;2.97;;;;;;;;;;5068403;28;20374;-78
2022/08/03 02:58:28;;;;;;;3.33;3.00;;;;;;;;;;5072058;28;20252;-78
2022/08/03 03:00:55;;;;;;;3.70;3.40;;;;;;;;;;5071533;28;20186;-78
2022/08/03 03:03:21;;;;;;;3.53;3.00;;;;;;;;;;5066172;28;20193;-78
2022/08/03 03:05:49;;;;;;;3.13;2.80;;;;;;;;;;5066306;28;20209;-78
2022/08/03 03:08:17;;;;;;;2.90;2.57;;;;;;;;;;5072363;28;20196;-78
2022/08/03 03:10:43;;;;;;;4.17;3.00;;;;;;;;;;5075604;28;20193;-78
2022/08/03 03:13:10;;;;;;;3.03;2.83;;;;;;;;;;5072081;28;20205;-78
2022/08/03 03:15:38;;;;;;;3.20;3.00;;;;;;;;;;5066758;28;20209;-78
2022/08/03 03:18:05;;;;;;;3.40;3.10;;;;;;;;;;5068848;28;20177;-78
2022/08/03 03:20:34;;;;;;;2.90;2.70;;;;;;;;;;5069772;28;20173;-78
2022/08/03 03:23:00;;;;;;;2.60;2.40;;;;;;;;;;5067799;28;20704;-78
2022/08/03 03:25:31;;;;;;;3.67;2.50;;;;;;;;;;5066291;28;20198;-77
2022/08/03 03:27:57;;;;;;;3.37;2.47;;;;;;;;;;5071185;28;20185;-77
2022/08/03 03:30:23;;;;;;;2.80;2.50;;;;;;;;;;5068143;28;20621;-78
2022/08/03 03:32:50;;;;;;;2.60;2.40;;;;;;;;;;5068016;28;20295;-78
2022/08/03 03:35:16;;;;;;;2.80;2.60;;;;;;;;;;5066956;28;20604;-78
2022/08/03 03:37:42;;;;;;;2.87;2.57;;;;;;;;;;5073911;28;20193;-78
2022/08/03 03:40:09;;;;;;;4.13;2.80;;;;;;;;;;5065669;28;20189;-77
2022/08/03 03:42:37;;;;;;;3.37;2.80;;;;;;;;;;5064511;28;20264;-77
2022/08/03 03:45:07;;;;;;;3.43;2.90;;;;;;;;;;5068177;28;20296;-78
2022/08/03 03:47:34;;;;;;;3.07;2.50;;;;;;;;;;5064972;28;20182;-78
2022/08/03 03:50:04;;;;;;;3.37;3.07;;;;;;;;;;5061202;28;20242;-78
2022/08/03 03:52:31;;;;;;;3.17;2.90;;;;;;;;;;5063715;28;20288;-78
2022/08/03 03:54:57;;;;;;;3.20;2.87;;;;;;;;;;5068816;28;20196;-78
2022/08/03 03:57:23;;;;;;;4.30;2.80;;;;;;;;;;5065820;28;20209;-78
2022/08/03 03:59:50;;;;;;;3.93;2.53;;;;;;;;;;5080239;28;20180;-78
2022/08/03 04:02:16;;;;;;;2.70;2.50;;;;;;;;;;5079701;28;20176;-77
2022/08/03 04:13:06;;;;;;;3.43;2.60;;;;;;;;;;5066856;28;20224;-78
2022/08/03 04:15:32;;;;;;;4.10;2.80;;;;;;;;;;5070809;28;20707;-77
2022/08/03 04:17:59;;;;;;;2.70;2.50;;;;;;;;;;5074235;28;20173;-78
2022/08/03 04:20:30;;;;;;;3.60;3.30;;;;;;;;;;5063814;28;20216;-77
2022/08/03 04:22:56;;;;;;;3.50;3.20;;;;;;;;;;5068578;28;20182;-78
2022/08/03 04:25:25;;;;;;;4.20;3.20;;;;;;;;;;5064399;28;20214;-77
2022/08/03 04:27:54;;;;;;;3.40;2.77;;;;;;;;;;5069845;28;20233;-77
2022/08/03 04:30:21;;;;;;;3.13;2.77;;;;;;;;;;5080152;28;20185;-77
2022/08/03 04:32:50;;;;;;;3.33;3.03;;;;;;;;;;5070746;28;20675;-78
2022/08/03 04:35:17;;;;;;;3.10;2.80;;;;;;;;;;5066617;28;20215;-78
2022/08/03 04:37:48;;;;;;;3.50;3.00;;;;;;;;;;5069054;28;20223;-78
2022/08/03 04:40:19;;;;;;;3.70;3.37;;;;;;;;;;5069433;28;20177;-78
2022/08/03 04:42:46;;;;;;;3.97;3.33;;;;;;;;;;5073272;28;21052;-77
2022/08/03 04:45:12;;;;;;;3.63;3.33;;;;;;;;;;5068641;28;20257;-78
2022/08/03 04:47:39;;;;;;;4.77;3.50;;;;;;;;;;5073952;28;20177;-77
2022/08/03 04:50:06;;;;;;;5.40;3.67;;;;;;;;;;5073144;28;20526;-78
2022/08/03 04:52:32;;;;;;;4.27;3.43;;;;;;;;;;5062985;28;20212;-78
2022/08/03 04:54:59;;;;;;;4.13;3.73;;;;;;;;;;5063218;28;20197;-78
2022/08/03 04:57:25;;;;;;;4.87;3.70;;;;;;;;;;5068722;28;20211;-78
2022/08/03 04:59:55;;;;;;;5.87;3.57;;;;;;;;;;5068434;28;20190;-78
2022/08/03 05:02:21;;;;;;;3.90;3.43;;;;;;;;;;5067012;28;20188;-78
2022/08/03 05:04:48;;;;;;;3.97;3.57;;;;;;;;;;5071122;28;20740;-77
2022/08/03 05:07:15;;;;;;;4.37;3.60;;;;;;;;;;5069102;28;20260;-78
2022/08/03 05:09:41;;;;;;;4.63;3.57;;;;;;;;;;5068675;28;20184;-78
2022/08/03 05:12:08;;;;;;;4.33;3.57;;;;;;;;;;5069948;28;20258;-78
2022/08/03 05:14:37;;;;;;;4.40;3.50;;;;;;;;;;5066760;28;20218;-78
2022/08/03 05:17:07;;;;;;;4.07;3.10;;;;;;;;;;5062680;28;20610;-78
2022/08/03 05:19:33;;;;;;;3.37;3.00;;;;;;;;;;5064470;28;20193;-78
2022/08/03 05:21:59;;;;;;;3.13;2.83;;;;;;;;;;5048790;28;20199;-78
2022/08/03 05:24:26;;;;;;;4.17;3.10;;;;;;;;;;5065624;28;20200;-78
2022/08/03 05:26:52;;;;;;;3.73;3.43;;;;;;;;;;5068639;28;20279;-78
2022/08/03 05:29:18;;;;;;;4.10;3.10;;;;;;;;;;5067828;28;20177;-78
2022/08/03 05:31:45;;;;;;;5.27;3.70;;;;;;;;;;5065163;28;20764;-78
2022/08/03 05:34:11;;;;;;;4.30;3.90;;;;;;;;;;5065836;28;20212;-78
2022/08/03 05:36:37;;;;;;;4.37;3.80;;;;;;;;;;5066674;28;20208;-78
2022/08/03 05:39:03;;;;;;;4.20;3.83;;;;;;;;;;5064283;28;20240;-78
2022/08/03 05:41:29;;;;;;;5.13;4.00;;;;;;;;;;5067478;28;20176;-78
2022/08/03 05:43:55;;;;;;;5.20;4.70;;;;;;;;;;5072653;28;20201;-78
2022/08/03 05:46:22;;;;;;;5.37;4.10;;;;;;;;;;5067229;28;20173;-77
2022/08/03 05:48:48;;;;;;;6.17;4.33;;;;;;;;;;5062345;28;20185;-78
2022/08/03 05:51:15;;;;;;;4.40;3.93;;;;;;;;;;5062342;28;20177;-76
2022/08/03 05:53:41;;;;;;;5.83;4.27;;;;;;;;;;5064272;28;20292;-78
2022/08/03 05:56:08;;;;;;;6.00;4.10;;;;;;;;;;5067514;28;20266;-76
2022/08/03 05:58:34;;;;;;;7.50;3.90;;;;;;;;;;5061793;28;20184;-75
2022/08/03 06:01:00;;;;;;;3.80;3.40;;;;;;;;;;5063128;28;20246;-75
2022/08/03 06:03:26;;;;;;;3.87;2.93;;;;;;;;;;5067513;28;20177;-75
2022/08/03 06:05:54;;;;;;;3.30;2.97;;;;;;;;;;5067433;28;20297;-75
2022/08/03 06:08:20;;;;;;;3.20;2.90;;;;;;;;;;5074531;28;20621;-75
2022/08/03 06:10:47;;;;;;;4.57;3.70;;;;;;;;;;5071801;28;20205;-75
2022/08/03 06:13:13;;;;;;;4.07;3.67;;;;;;;;;;5078568;28;20645;-75
2022/08/03 06:15:39;;;;;;;4.10;3.70;;;;;;;;;;5067207;28;20215;-75
2022/08/03 06:18:06;;;;;;;4.30;3.90;;;;;;;;;;5068383;28;20700;-75
2022/08/03 06:20:32;;;;;;;4.10;3.30;;;;;;;;;;5065305;28;20195;-76
2022/08/03 06:22:59;;;;;;;4.30;3.30;;;;;;;;;;5067599;28;20234;-75
2022/08/03 06:25:25;;;;;;;6.90;3.87;;;;;;;;;;5075009;28;20236;-76
2022/08/03 06:27:51;;;;;;;4.10;3.53;;;;;;;;;;5068382;28;20185;-75
2022/08/03 06:30:17;;;;;;;5.10;3.60;;;;;;;;;;5069156;28;20190;-75
2022/08/03 06:32:44;;;;;;;5.40;3.20;;;;;;;;;;5064718;28;20267;-76
2022/08/03 06:35:10;;;;;;;3.50;3.20;;;;;;;;;;5069944;28;21160;-76
2022/08/03 06:37:43;;;;;;;4.73;3.87;;;;;;;;;;5062950;28;20205;-76
2022/08/03 06:40:11;;;;;;;4.10;3.70;;;;;;;;;;5064917;28;20185;-75
2022/08/03 06:42:37;;;;;;;4.43;3.50;;;;;;;;;;5063200;28;20181;-75
2022/08/03 06:45:05;;;;;;;4.37;3.70;;;;;;;;;;5066637;28;20644;-75
2022/08/03 06:47:31;;;;;;;6.43;3.40;;;;;;;;;;5068472;28;20230;-75
2022/08/03 06:49:57;;;;;;;3.33;3.03;;;;;;;;;;5060178;28;20186;-75
2022/08/03 06:52:23;;;;;;;4.20;2.70;;;;;;;;;;5071110;28;20710;-75
2022/08/03 06:54:49;;;;;;;3.87;2.63;;;;;;;;;;5062727;28;20201;-75
2022/08/03 06:57:17;;;;;;;3.37;2.63;;;;;;;;;;5064856;28;20185;-76
2022/08/03 06:59:43;;;;;;;3.83;2.93;;;;;;;;;;5063603;28;20169;-76
2022/08/03 07:02:10;;;;;;;2.77;2.50;;;;;;;;;;5068756;28;20188;-75
2022/08/03 07:04:36;;;;;;;2.43;2.20;;;;;;;;;;5072679;28;20209;-75
2022/08/03 07:07:02;;;;;;;2.70;2.33;;;;;;;;;;5070596;28;20268;-75
2022/08/03 07:09:29;;;;;;;3.33;3.00;;;;;;;;;;5062310;28;20189;-75
2022/08/03 07:11:55;;;;;;;5.07;2.70;;;;;;;;;;5068818;28;20205;-75
2022/08/03 07:14:23;;;;;;;4.70;2.40;;;;;;;;;;5067404;28;20352;-75
2022/08/03 07:16:49;;;;;;;2.60;2.40;;;;;;;;;;5065423;28;20177;-75
2022/08/03 07:19:15;;;;;;;3.00;2.70;;;;;;;;;;5070279;28;20181;-75
2022/08/03 07:21:41;;;;;;;2.90;2.43;;;;;;;;;;5065837;28;20184;-75
2022/08/03 07:24:07;;;;;;;6.30;2.77;;;;;;;;;;5065554;28;20204;-75
2022/08/03 07:26:34;;;;;;;3.33;2.53;;;;;;;;;;5072740;28;20184;-75
2022/08/03 07:29:00;;;;;;;4.83;3.00;;;;;;;;;;5066730;28;20181;-75
2022/08/03 07:31:26;;;;;;;3.97;2.70;;;;;;;;;;5063437;28;20527;-75
2022/08/03 07:33:53;;;;;;;2.63;2.43;;;;;;;;;;5062802;28;20206;-75
2022/08/03 07:36:19;;;;;;;2.80;2.57;;;;;;;;;;5074531;28;20611;-75
2022/08/03 07:38:45;;;;;;;3.83;2.70;;;;;;;;;;5063590;28;20192;-75
2022/08/03 07:41:11;;;;;;;3.63;2.57;;;;;;;;;;5066050;28;20173;-75
2022/08/03 07:43:38;;;;;;;3.20;3.00;;;;;;;;;;5068005;28;20188;-75
2022/08/03 07:46:04;;;;;;;3.70;2.80;;;;;;;;;;5070142;28;20205;-75
2022/08/03 07:48:30;;;;;;;4.87;2.80;;;;;;;;;;5067502;28;20650;-75
2022/08/03 07:50:56;;;;;;;4.47;2.70;;;;;;;;;;5062764;28;20194;-75
2022/08/03 07:53:22;;;;;;;5.40;3.40;;;;;;;;;;5063836;28;20211;-75
2022/08/03 07:55:48;;;;;;;3.10;2.80;;;;;;;;;;5071368;28;20208;-75
2022/08/03 07:58:16;;;;;;;3.93;3.07;;;;;;;;;;5065094;28;20177;-75
2022/08/03 08:00:43;;;;;;;3.10;2.80;;;;;;;;;;5062667;28;20182;-75
2022/08/03 08:03:09;;;;;;;3.63;2.80;;;;;;;;;;5067037;28;20193;-75
2022/08/03 08:05:35;;;;;;;3.53;2.57;;;;;;;;;;5062616;28;20231;-75
2022/08/03 08:08:02;;;;;;;2.70;2.50;;;;;;;;;;5065193;28;20279;-75
2022/08/03 08:10:28;;;;;;;3.40;3.10;;;;;;;;;;5066188;28;20223;-75
2022/08/03 08:12:55;;;;;;;3.50;3.03;;;;;;;;;;5065314;28;20216;-75
2022/08/03 08:15:21;;;;;;;3.20;2.90;;;;;;;;;;5075141;28;20283;-75
2022/08/03 08:17:49;;;;;;;3.50;2.40;;;;;;;;;;5060058;28;20182;-75
2022/08/03 08:20:17;;;;;;;4.10;2.73;;;;;;;;;;5060224;28;20174;-75
2022/08/03 08:22:43;;;;;;;6.13;2.80;;;;;;;;;;5062787;28;20240;-75
2022/08/03 08:25:09;;;;;;;4.73;2.60;;;;;;;;;;5078671;28;20201;-75
2022/08/03 08:27:45;;;;;;;2.60;2.40;;;;;;;;;;5068637;28;20186;-75
2022/08/03 08:30:12;;;;;;;3.23;2.60;;;;;;;;;;5061361;28;20297;-75
2022/08/03 08:32:38;;;;;;;3.60;2.40;;;;;;;;;;5066728;28;20206;-75
2022/08/03 08:35:05;;;;;;;2.60;2.40;;;;;;;;;;5071978;28;20602;-75
2022/08/03 08:37:31;;;;;;;3.07;2.50;;;;;;;;;;5074351;28;20181;-75
2022/08/03 08:39:57;;;;;;;3.63;2.43;;;;;;;;;;5064359;28;20232;-75
2022/08/03 08:42:24;;;;;;;3.17;2.70;;;;;;;;;;5062833;28;20210;-75
2022/08/03 08:44:50;;;;;;;2.93;2.40;;;;;;;;;;5066195;28;20208;-75
2022/08/03 08:47:18;;;;;;;3.13;2.50;;;;;;;;;;5065640;28;20185;-75
2022/08/03 08:49:46;;;;;;;2.83;2.50;;;;;;;;;;5059314;28;20192;-75
2022/08/03 08:52:13;;;;;;;2.67;2.40;;;;;;;;;;5067043;28;20205;-75
2022/08/03 08:54:41;;;;;;;3.50;2.13;;;;;;;;;;5068975;28;20204;-75
2022/08/03 08:57:08;;;;;;;3.03;2.43;;;;;;;;;;5067272;28;20187;-75
2022/08/03 08:59:35;;;;;;;2.93;2.50;;;;;;;;;;5063095;28;20177;-75
2022/08/03 09:02:01;;;;;;;2.87;2.63;;;;;;;;;;5057945;28;20236;-76
2022/08/03 09:04:29;;;;;;;4.13;2.40;;;;;;;;;;5061944;28;20636;-75
2022/08/03 09:06:55;;;;;;;3.80;2.30;;;;;;;;;;5069873;28;20287;-75
2022/08/03 09:09:22;;;;;;;2.60;2.40;;;;;;;;;;5054675;28;20305;-75
2022/08/03 09:11:48;;;;;;;2.90;2.30;;;;;;;;;;5061675;28;20200;-75
2022/08/03 09:14:15;;;;;;;2.50;2.30;;;;;;;;;;5069279;28;20195;-75
2022/08/03 09:16:59;;;;;;;2.40;2.20;;;;;;;;;;5062783;28;20299;-75
2022/08/03 09:19:25;;;;;;;2.20;2.03;;;;;;;;;;5068728;28;20170;-75
2022/08/03 09:22:10;;;;;;;4.60;2.20;;;;;;;;;;5062932;28;20208;-75
2022/08/03 09:24:36;;;;;;;2.53;2.23;;;;;;;;;;5064269;28;20197;-75
2022/08/03 09:27:06;;;;;;;2.57;1.90;;;;;;;;;;5063348;28;20188;-75
2022/08/03 09:29:32;;;;;;;3.00;2.20;;;;;;;;;;5066210;28;20192;-75
2022/08/03 09:32:02;;;;;;;2.20;2.00;;;;;;;;;;5063421;28;20188;-75
2022/08/03 09:34:29;;;;;;;2.50;2.30;;;;;;;;;;5074575;28;20204;-75
2022/08/03 09:36:57;;;;;;;2.00;1.90;;;;;;;;;;5073199;28;20653;-75
2022/08/03 09:39:25;;;;;;;2.50;2.30;;;;;;;;;;5062733;28;22159;-75
2022/08/03 09:42:08;;;;;;;2.10;2.00;;;;;;;;;;5077575;28;20693;-75
2022/08/03 09:44:40;;;;;;;2.10;1.90;;;;;;;;;;5070465;28;20285;-75
2022/08/03 09:47:08;;;;;;;3.17;2.00;;;;;;;;;;5061831;28;20212;-76
2022/08/03 09:49:35;;;;;;;2.40;2.20;;;;;;;;;;5066055;28;20185;-75
2022/08/03 09:52:11;;;;;;;2.87;1.90;;;;;;;;;;5077059;28;20607;-75
2022/08/03 09:54:37;;;;;;;4.13;2.23;;;;;;;;;;5068278;28;20650;-75
2022/08/03 09:57:04;;;;;;;4.30;2.30;;;;;;;;;;5065396;28;20292;-75
2022/08/03 09:59:31;;;;;;;2.27;2.00;;;;;;;;;;5062954;28;20195;-75
2022/08/03 10:01:58;;;;;;;3.40;2.27;;;;;;;;;;5063590;28;20189;-75
2022/08/03 10:04:25;;;;;;;3.90;2.00;;;;;;;;;;5063924;28;20202;-76
2022/08/03 10:07:02;;;;;;;2.40;2.20;;;;;;;;;;5071024;28;20631;-76
2022/08/03 10:09:28;;;;;;;2.70;2.00;;;;;;;;;;5072249;28;20208;-76
2022/08/03 10:11:54;;;;;;;3.20;2.10;;;;;;;;;;5067989;28;20204;-76
2022/08/03 10:14:22;;;;;;;4.40;2.20;;;;;;;;;;5065872;28;20468;-76
2022/08/03 10:16:49;;;;;;;3.13;2.13;;;;;;;;;;5073672;28;20689;-75
2022/08/03 10:19:15;;;;;;;2.83;2.07;;;;;;;;;;5066850;28;20185;-75
2022/08/03 10:21:46;;;;;;;3.17;2.40;;;;;;;;;;5070369;28;20181;-75
2022/08/03 10:24:15;;;;;;;2.40;2.20;;;;;;;;;;5064944;28;20214;-75
2022/08/03 10:26:43;;;;;;;2.60;2.40;;;;;;;;;;5063314;28;20958;-75
2022/08/03 10:29:17;;;;;;;2.37;2.20;;;;;;;;;;5066273;28;20181;-75
2022/08/03 10:31:45;;;;;;;2.20;1.97;;;;;;;;;;5063834;28;20190;-76
2022/08/03 10:34:18;;;;;;;2.63;2.30;;;;;;;;;;5050404;28;20209;-75
2022/08/03 10:36:45;;;;;;;2.60;2.40;;;;;;;;;;5070547;28;20559;-76
2022/08/03 10:39:12;;;;;;;4.37;2.30;;;;;;;;;;5067418;28;20656;-75
2022/08/03 10:41:41;;;;;;;2.40;2.20;;;;;;;;;;5060540;28;20548;-75
2022/08/03 10:44:12;;;;;;;2.50;2.30;;;;;;;;;;5068722;28;20263;-78
2022/08/03 10:46:39;;;;;;;4.33;2.50;;;;;;;;;;5070974;28;20742;-74
2022/08/03 10:49:06;;;;;;;2.97;2.27;;;;;;;;;;5069061;28;20187;-77
2022/08/03 10:51:32;;;;;;;2.63;2.33;;;;;;;;;;5069313;28;20185;-78
2022/08/03 10:53:59;;;;;;;3.40;2.57;;;;;;;;;;5071444;28;20295;-78
2022/08/03 10:59:16;;;;;;;2.13;1.97;;;;;;;;;;5066515;28;20262;-75
2022/08/03 11:01:49;;;;;;;4.53;2.30;;;;;;;;;;5066564;28;20177;-75
2022/08/03 11:04:17;;;;;;;2.73;2.30;;;;;;;;;;5063207;28;20209;-75
2022/08/03 11:06:43;;;;;;;2.47;2.27;;;;;;;;;;5068873;28;20208;-75
2022/08/03 11:09:09;;;;;;;2.57;2.37;;;;;;;;;;5062576;28;20182;-75
2022/08/03 11:11:39;;;;;;;2.73;2.30;;;;;;;;;;5071126;28;20209;-75
2022/08/03 11:14:07;;;;;;;2.20;2.10;;;;;;;;;;5071763;28;20555;-74
2022/08/03 11:16:46;;;;;;;2.37;2.17;;;;;;;;;;5065827;28;20183;-74
2022/08/03 11:19:18;;;;;;;2.50;2.30;;;;;;;;;;5067260;28;20555;-74
2022/08/03 11:21:50;;;;;;;2.70;2.20;;;;;;;;;;5058189;28;20198;-74
2022/08/03 11:24:35;;;;;;;2.37;2.13;;;;;;;;;;5061447;28;21158;-74
2022/08/03 11:27:16;;;;;;;2.13;2.03;;;;;;;;;;5066881;28;20216;-74
2022/08/03 11:30:01;;;;;;;2.20;2.00;;;;;;;;;;5066259;28;20192;-75
2022/08/03 11:32:36;;;;;;;3.73;1.93;;;;;;;;;;5060386;28;20680;-75
2022/08/03 11:35:10;;;;;;;2.20;2.00;;;;;;;;;;5064928;28;20201;-75
2022/08/03 11:37:56;;;;;;;2.20;2.10;;;;;;;;;;5069991;28;20239;-75
2022/08/03 11:40:38;;;;;;;3.10;2.23;;;;;;;;;;5061950;28;20186;-75
2022/08/03 11:43:06;;;;;;;2.33;2.00;;;;;;;;;;5064367;28;20255;-78
2022/08/03 11:45:32;;;;;;;3.10;2.10;;;;;;;;;;5065445;28;20214;-77
2022/08/03 11:48:02;;;;;;;2.97;2.20;;;;;;;;;;5060065;28;20221;-78
2022/08/03 11:50:36;;;;;;;3.57;1.90;;;;;;;;;;5064386;28;20190;-78
2022/08/03 11:53:02;;;;;;;3.47;2.40;;;;;;;;;;5058321;28;20281;-78
2022/08/03 11:55:30;;;;;;;2.90;2.10;;;;;;;;;;5060016;28;20228;-78
2022/08/03 11:57:59;;;;;;;2.83;1.93;;;;;;;;;;5059729;28;20240;-78
2022/08/03 12:00:29;;;;;;;2.10;1.93;;;;;;;;;;5042873;28;20192;-75
2022/08/03 12:02:56;;;;;;;1.80;1.70;;;;;;;;;;5063304;28;20181;-75
2022/08/03 12:05:32;;;;;;;2.13;1.73;;;;;;;;;;5063415;28;20632;-75
2022/08/03 12:07:58;;;;;;;2.00;1.80;;;;;;;;;;5064087;28;20178;-76
2022/08/03 12:10:25;;;;;;;2.00;1.80;;;;;;;;;;5056712;28;20320;-76
2022/08/03 12:12:58;;;;;;;2.10;2.00;;;;;;;;;;5056657;28;20214;-76
2022/08/03 12:15:25;;;;;;;2.50;2.30;;;;;;;;;;5060869;28;20213;-76
2022/08/03 12:17:51;;;;;;;3.97;1.90;;;;;;;;;;5055581;28;20555;-75
2022/08/03 12:20:21;;;;;;;2.00;1.80;;;;;;;;;;5058302;28;20278;-76
2022/08/03 12:22:48;;;;;;;1.87;1.70;;;;;;;;;;5064909;28;20188;-75
2022/08/03 12:25:22;;;;;;;2.53;1.57;;;;;;;;;;5063924;28;20208;-75
2022/08/03 12:27:48;;;;;;;1.70;1.60;;;;;;;;;;5068186;28;20203;-75
2022/08/03 12:30:15;;;;;;;2.80;1.87;;;;;;;;;;5063965;28;20651;-77
2022/08/03 12:32:42;;;;;;;2.33;1.80;;;;;;;;;;5065445;28;20675;-75
2022/08/03 12:35:08;;;;;;;1.70;1.60;;;;;;;;;;5064858;28;20663;-75
2022/08/03 12:37:35;;;;;;;2.50;1.60;;;;;;;;;;5063861;28;20182;-76
2022/08/03 12:40:05;;;;;;;1.87;1.70;;;;;;;;;;5059217;28;20659;-75
2022/08/03 12:42:35;;;;;;;1.70;1.60;;;;;;;;;;5058765;28;20183;-75
2022/08/03 12:45:20;;;;;;;2.90;1.50;;;;;;;;;;5065706;28;20203;-75
2022/08/03 12:47:57;;;;;;;1.80;1.57;;;;;;;;;;5053787;28;20306;-76
2022/08/03 12:50:26;;;;;;;3.10;1.73;;;;;;;;;;5061201;28;20603;-76
2022/08/03 12:52:53;;;;;;;1.60;1.50;;;;;;;;;;5065309;28;20211;-76
2022/08/03 12:55:20;;;;;;;2.20;1.40;;;;;;;;;;5055773;28;20214;-76
2022/08/03 12:57:46;;;;;;;1.83;1.33;;;;;;;;;;5055918;28;20267;-75
2022/08/03 13:00:16;;;;;;;3.28;1.60;;;;;;;;;;5061161;28;20669;-76
2022/08/03 13:02:43;;;;;;;2.00;1.70;;;;;;;;;;5058596;28;20185;-76
2022/08/03 13:05:18;;;;;;;1.95;1.75;;;;;;;;;;5059696;28;20250;-77
2022/08/03 13:07:46;;;;;;;1.70;1.40;;;;;;;;;;5058726;28;20184;-75
2022/08/03 13:10:26;;;;;;;4.32;1.45;;;;;;;;;;5061787;28;20561;-74
2022/08/03 13:12:52;;;;;;;1.55;1.42;;;;;;;;;;5064179;28;20205;-74
2022/08/03 13:15:18;;;;;;;1.77;1.65;;;;;;;;;;5057656;28;20197;-74
2022/08/03 13:17:44;;;;;;;1.77;1.40;;;;;;;;;;5056493;28;20182;-74
2022/08/03 13:20:11;;;;;;;4.45;1.50;;;;;;;;;;5056478;28;20217;-74
2022/08/03 13:22:37;;;;;;;1.88;1.50;;;;;;;;;;5055758;28;20191;-74
2022/08/03 13:25:04;;;;;;;1.73;1.50;;;;;;;;;;5064342;28;20255;-74
2022/08/03 13:27:30;;;;;;;2.42;2.22;;;;;;;;;;5060118;28;20182;-76
2022/08/03 13:29:57;;;;;;;1.95;1.75;;;;;;;;;;5058969;28;20195;-76
2022/08/03 13:32:23;;;;;;;1.73;1.35;;;;;;;;;;5060156;28;20697;-75
2022/08/03 13:34:49;;;;;;;1.65;1.40;;;;;;;;;;5065641;28;20257;-75
2022/08/03 13:37:15;;;;;;;1.55;1.45;;;;;;;;;;5061917;28;20711;-75
2022/08/03 13:39:41;;;;;;;1.63;1.45;;;;;;;;;;5056756;28;20200;-76
2022/08/03 13:42:08;;;;;;;1.75;1.65;;;;;;;;;;5064506;28;20831;-76
2022/08/03 13:44:37;;;;;;;1.88;1.77;;;;;;;;;;5059520;28;20675;-76
2022/08/03 13:47:04;;;;;;;1.85;1.52;;;;;;;;;;5063227;28;20181;-76
2022/08/03 13:49:30;;;;;;;2.15;1.50;;;;;;;;;;5058609;28;20191;-76
2022/08/03 13:51:56;;;;;;;1.70;1.60;;;;;;;;;;5066025;28;20193;-76
2022/08/03 13:54:23;;;;;;;1.95;1.65;;;;;;;;;;5056274;28;20282;-76
2022/08/03 13:56:53;;;;;;;2.20;1.45;;;;;;;;;;5056962;28;20258;-76
2022/08/03 13:59:19;;;;;;;2.00;1.45;;;;;;;;;;5061587;28;20261;-76
2022/08/03 14:01:46;;;;;;;1.88;1.60;;;;;;;;;;5057355;28;20185;-76
2022/08/03 14:04:13;;;;;;;1.67;1.58;;;;;;;;;;5058333;28;20214;-76
2022/08/03 14:06:39;;;;;;;2.63;1.85;;;;;;;;;;5059689;28;20182;-76
2022/08/03 14:09:05;;;;;;;2.50;1.60;;;;;;;;;;5059290;28;20186;-76
2022/08/03 14:11:31;;;;;;;1.77;1.60;;;;;;;;;;5062726;28;20196;-78
2022/08/03 14:13:57;;;;;;;3.75;1.70;;;;;;;;;;5055614;28;20201;-77
2022/08/03 14:16:24;;;;;;;3.78;1.70;;;;;;;;;;5057991;28;20257;-78
2022/08/03 14:18:50;;;;;;;2.13;1.60;;;;;;;;;;5057209;28;20193;-76
2022/08/03 14:21:16;;;;;;;1.80;1.67;;;;;;;;;;5057171;28;20192;-79
2022/08/03 14:23:42;;;;;;;1.77;1.52;;;;;;;;;;5058607;28;20189;-76
2022/08/03 14:26:08;;;;;;;1.85;1.50;;;;;;;;;;5065681;28;20231;-76
2022/08/03 14:28:35;;;;;;;3.10;1.50;;;;;;;;;;5063632;28;20176;-76
2022/08/03 14:31:01;;;;;;;1.70;1.60;;;;;;;;;;5061395;28;20193;-76
2022/08/03 14:33:28;;;;;;;2.05;1.40;;;;;;;;;;5056389;28;20260;-76
2022/08/03 14:35:54;;;;;;;3.35;3.05;;;;;;;;;;5065338;28;20216;-76
2022/08/03 14:38:21;;;;;;;1.83;1.73;;;;;;;;;;5065801;28;20733;-76
2022/08/03 14:40:47;;;;;;;1.75;1.65;;;;;;;;;;5069253;28;20211;-78
2022/08/03 14:43:16;;;;;;;2.05;1.30;;;;;;;;;;5070010;28;20189;-76
2022/08/03 14:45:42;;;;;;;1.90;1.50;;;;;;;;;;5073442;28;20220;-76
2022/08/03 14:48:09;;;;;;;1.70;1.60;;;;;;;;;;5072506;28;20264;-76
2022/08/03 14:50:35;;;;;;;2.08;1.50;;;;;;;;;;5064891;28;20181;-76
2022/08/03 14:53:01;;;;;;;1.45;1.35;;;;;;;;;;5063867;28;20217;-76
2022/08/03 14:55:27;;;;;;;1.63;1.50;;;;;;;;;;5070226;28;20594;-76
2022/08/03 14:57:53;;;;;;;1.60;1.50;;;;;;;;;;5070596;28;20212;-76